Time;durP1;ratioP1;P1;durP2;ratioP2;P2;SDS_P1;SDS_P2;PMS_P1;PMS_P2;Temp;Humidity;BMP_temperature;BMP_pressure;BME280_temperature;BME280_humidity;BME280_pressure;Samples;Min_cycle;Max_cycle;Signal;HPM_P1;HPM_P2
2023/06/24 00:05:29;;;;;;;23.80;21.60;;;;;;;-141.02;92.34;43676.91;5113758;28;20711;-69
2023/06/24 00:18:17;;;;;;;23.50;21.40;;;;;;;-141.02;93.88;43653.84;5113187;28;20654;-71
2023/06/24 00:24:33;;;;;;;22.70;20.65;;;;;;;-141.02;92.46;43603.94;5112983;28;20247;-56
2023/06/24 00:27:36;;;;;;;22.58;20.50;;;;;;;-141.02;93.05;43621.22;5113189;28;20189;-70
2023/06/24 00:30:04;;;;;;;22.77;20.67;;;;;;;-141.02;93.04;43607.75;5112845;28;20196;-71
2023/06/24 00:36:16;;;;;;;24.42;22.23;;;;;;;-141.02;92.81;43584.72;5112959;28;20218;-69
2023/06/24 00:38:53;;;;;;;24.70;22.50;;;;;;;-141.02;92.54;43590.47;5113069;28;20280;-56
2023/06/24 00:42:01;;;;;;;23.60;21.50;;;;;;;-141.02;92.63;43580.88;5112666;28;20272;-69
2023/06/24 00:48:26;;;;;;;23.25;21.15;;;;;;;-141.02;92.94;43538.63;5112717;28;20260;-66
2023/06/24 00:58:31;;;;;;;19.83;18.23;;;;;;;-141.02;99.56;43794.03;5112123;28;20188;-55
2023/06/24 01:01:01;;;;;;;19.73;18.23;;;;;;;-141.02;100.00;43953.41;5112826;28;20193;-55
2023/06/24 01:06:50;;;;;;;18.10;16.80;;;;;;;-141.02;100.00;44823.47;5112500;28;20198;-55
2023/06/24 01:09:17;;;;;;;17.90;16.60;;;;;;;-141.02;100.00;45751.38;5112362;28;20201;-56
2023/06/24 01:15:07;;;;;;;16.75;15.65;;;;;;;-141.02;100.00;48977.06;5112448;28;20230;-55
2023/06/24 01:21:06;;;;;;;15.65;14.75;;;;;;;-141.02;100.00;52999.03;5112362;28;20188;-55
2023/06/24 01:27:28;;;;;;;15.55;14.68;;;;;;;-141.02;100.00;59721.97;5098849;28;20386;-55
2023/06/24 01:33:25;;;;;;;15.20;14.40;;;;;;;-141.02;100.00;64417.41;5112264;28;20206;-56
2023/06/24 01:39:21;;;;;;;14.32;13.63;;;;;;;-141.02;100.00;68376.50;5112211;28;20272;-56
2023/06/24 01:45:26;;;;;;;13.70;13.10;;;;;;;-141.02;100.00;75564.03;5112191;28;20210;-55
2023/06/24 01:48:00;;;;;;;13.75;13.15;;;;;;;-141.02;100.00;76804.81;5112064;28;20221;-55
2023/06/24 01:53:55;;;;;;;13.30;12.70;;;;;;;-141.02;100.00;80032.88;5112128;28;20695;-69
2023/06/24 01:59:47;;;;;;;11.60;11.20;;;;;;;-141.02;100.00;84258.75;5111980;28;20279;-55
2023/06/24 02:02:15;;;;;;;12.40;11.90;;;;;;;-141.02;100.00;85751.50;5111038;28;20229;-55
2023/06/24 02:04:44;;;;;;;12.38;11.88;;;;;;;-141.02;100.00;87244.88;5112170;28;20201;-55
2023/06/24 02:08:03;;;;;;;12.40;12.00;;;;;;;-141.02;100.00;88738.88;5111850;28;20200;-55
2023/06/24 02:10:31;;;;;;;12.20;11.80;;;;;;;-141.02;100.00;89984.41;5113263;28;20236;-55
2023/06/24 02:19:43;;;;;;;13.70;13.10;;;;;;;-141.02;100.00;86249.22;5116072;28;20173;-55
2023/06/24 02:25:48;;;;;;;14.43;13.73;;;;;;;-141.02;100.00;83263.97;5115459;28;20188;-56
2023/06/24 02:28:16;;;;;;;14.35;13.65;;;;;;;-141.02;100.00;81772.31;5114571;28;20236;-68
2023/06/24 02:34:24;;;;;;;14.50;13.80;;;;;;;-141.02;100.00;82766.69;5115197;28;20646;-55
2023/06/24 02:40:24;;;;;;;14.20;13.60;;;;;;;-141.02;100.00;84756.25;5115089;28;20238;-69
2023/06/24 02:46:23;;;;;;;14.57;13.88;;;;;;;-141.02;100.00;84258.75;5114950;28;20222;-55
2023/06/24 02:48:52;;;;;;;14.30;13.60;;;;;;;-141.02;100.00;84010.03;5115197;28;20570;-55
2023/06/24 02:52:09;;;;;;;14.20;13.50;;;;;;;-141.02;100.00;84756.25;5114735;28;20675;-55
2023/06/24 02:54:39;;;;;;;14.40;13.70;;;;;;;-141.02;100.00;86000.34;5114747;28;20193;-68
2023/06/24 03:00:33;;;;;;;15.15;14.35;;;;;;;-141.02;100.00;84507.50;5114722;28;20268;-55
2023/06/24 03:07:03;;;;;;;15.50;14.70;;;;;;;-141.02;100.00;83015.31;5114764;28;20204;-56
2023/06/24 03:09:36;;;;;;;15.80;14.90;;;;;;;-141.02;100.00;82269.47;5114421;28;20225;-55
2023/06/24 03:12:53;;;;;;;15.85;14.95;;;;;;;-141.02;100.00;81523.75;5114446;28;20190;-55
2023/06/24 03:18:42;;;;;;;16.75;15.75;;;;;;;-141.02;100.00;80529.75;5114355;28;20230;-70
2023/06/24 03:21:09;;;;;;;16.80;15.80;;;;;;;-141.02;100.00;80529.75;5114166;28;20235;-55
2023/06/24 03:26:59;;;;;;;16.77;15.77;;;;;;;-141.02;100.00;80529.75;5114156;28;20582;-55
2023/06/24 03:32:57;;;;;;;16.10;15.10;;;;;;;-141.02;100.00;79536.03;5114117;28;20185;-55
2023/06/24 03:39:38;;;;;;;17.23;16.02;;;;;;;-141.02;100.00;79039.28;5113964;28;20276;-55
2023/06/24 03:42:36;;;;;;;17.20;16.00;;;;;;;-141.02;100.00;77549.47;5114114;28;20288;-56
2023/06/24 03:45:03;;;;;;;17.88;16.50;;;;;;;-141.02;100.00;76556.59;5114061;27;20257;-56
2023/06/24 03:47:30;;;;;;;18.08;16.67;;;;;;;-141.02;100.00;76060.28;5113689;28;20189;-55
2023/06/24 03:49:57;;;;;;;18.45;17.05;;;;;;;-141.02;100.00;75564.03;5114035;28;20220;-68
2023/06/24 03:52:24;;;;;;;18.95;17.45;;;;;;;-141.02;100.00;75315.94;5114147;28;20236;-69
2023/06/24 03:54:54;;;;;;;19.63;18.02;;;;;;;-141.02;100.00;74075.72;5113977;28;20218;-68
2023/06/24 03:57:23;;;;;;;20.08;18.38;;;;;;;-141.02;100.00;72835.97;5113808;28;20201;-70
2023/06/24 03:59:51;;;;;;;20.25;18.50;;;;;;;-141.02;100.00;73331.81;5113511;28;20189;-56
2023/06/24 04:02:24;;;;;;;19.65;17.95;;;;;;;-141.02;100.00;73083.88;5114522;28;20201;-56
2023/06/24 04:04:55;;;;;;;19.90;18.20;;;;;;;-141.02;100.00;74075.72;5113393;28;20272;-55
2023/06/24 04:07:27;;;;;;;19.80;18.10;;;;;;;-141.02;100.00;73331.81;5113283;28;20736;-55
2023/06/24 04:09:56;;;;;;;20.08;18.38;;;;;;;-141.02;100.00;73083.88;5113725;28;20189;-60
2023/06/24 04:12:24;;;;;;;19.52;17.83;;;;;;;-141.02;100.00;73827.72;5113636;28;20229;-70
2023/06/24 04:14:58;;;;;;;19.73;18.02;;;;;;;-141.02;100.00;74075.72;5113475;28;20204;-55
2023/06/24 04:17:25;;;;;;;19.73;18.02;;;;;;;-141.02;100.00;74571.75;5113188;28;20637;-68
2023/06/24 04:19:54;;;;;;;19.90;18.20;;;;;;;-141.02;100.00;74075.72;5113389;28;20276;-56
2023/06/24 04:22:27;;;;;;;20.23;18.42;;;;;;;-141.02;100.00;73827.72;5113081;28;20193;-69
2023/06/24 04:24:54;;;;;;;19.95;18.15;;;;;;;-141.02;100.00;73579.75;5113170;28;20260;-56
2023/06/24 04:27:24;;;;;;;19.85;18.15;;;;;;;-141.02;100.00;74075.72;5113299;28;20276;-69
2023/06/24 04:29:54;;;;;;;20.67;18.88;;;;;;;-141.02;100.00;73579.75;5113223;28;20193;-56
2023/06/24 04:32:26;;;;;;;20.95;19.15;;;;;;;-141.02;100.00;73579.75;5112551;28;20244;-55
2023/06/24 04:34:55;;;;;;;20.85;19.05;;;;;;;-141.02;100.00;73331.81;5112713;28;20197;-65
2023/06/24 04:37:28;;;;;;;20.77;18.88;;;;;;;-141.02;100.00;72835.97;5112842;28;20659;-56
2023/06/24 04:39:56;;;;;;;21.75;19.75;;;;;;;-141.02;99.89;72588.06;5112775;28;20244;-56
2023/06/24 04:42:26;;;;;;;22.33;20.25;;;;;;;-141.02;96.90;70853.25;5113054;28;20276;-56
2023/06/24 04:44:56;;;;;;;22.30;20.20;;;;;;;-141.02;100.00;72092.31;5112928;28;20308;-56
2023/06/24 04:47:49;;;;;;;23.27;20.98;;;;;;;-141.02;96.10;71101.03;5112964;28;20284;-56
2023/06/24 04:50:45;;;;;;;23.08;20.88;;;;;;;-141.02;95.55;72092.31;5112937;28;20753;-56
2023/06/24 04:56:40;;;;;;;23.15;20.95;;;;;;;-141.02;96.03;71101.03;5112692;28;20220;-70
2023/06/24 04:59:07;;;;;;;22.50;20.30;;;;;;;-141.02;96.86;71348.81;5112534;28;20189;-56
2023/06/24 05:01:34;;;;;;;23.70;21.40;;;;;;;-141.02;95.47;71844.47;5112725;28;20225;-70
2023/06/24 05:04:04;;;;;;;23.42;21.13;;;;;;;-141.02;96.44;70605.50;5112322;28;20271;-56
2023/06/24 05:06:31;;;;;;;22.90;20.70;;;;;;;-141.02;98.95;71101.03;5112368;28;20288;-56
2023/06/24 05:08:58;;;;;;;23.33;21.13;;;;;;;-141.02;98.14;70853.25;5112716;28;20272;-56
2023/06/24 05:11:25;;;;;;;23.23;21.08;;;;;;;-141.02;98.31;70853.25;5112407;28;20694;-56
2023/06/24 05:13:52;;;;;;;23.95;21.75;;;;;;;-141.02;98.87;70853.25;5112303;28;20616;-68
2023/06/24 05:16:19;;;;;;;23.80;21.60;;;;;;;-141.02;96.90;70853.25;5112366;28;20288;-55
2023/06/24 05:18:46;;;;;;;23.52;21.33;;;;;;;-141.02;98.44;70853.25;5112561;28;20254;-69
2023/06/24 05:21:15;;;;;;;23.23;21.05;;;;;;;-141.02;99.65;71348.81;5112334;28;20315;-56
2023/06/24 05:23:42;;;;;;;22.20;20.10;;;;;;;-141.02;100.00;71101.03;5112520;28;20666;-56
2023/06/24 05:26:09;;;;;;;23.20;21.00;;;;;;;-141.02;97.91;70110.03;5112212;28;20641;-56
2023/06/24 05:28:36;;;;;;;23.38;21.17;;;;;;;-141.02;98.43;70357.75;5112548;28;20189;-70
2023/06/24 05:31:02;;;;;;;24.58;22.27;;;;;;;-141.02;97.69;69366.97;5112153;28;20242;-55
2023/06/24 05:33:30;;;;;;;22.90;20.80;;;;;;;-141.02;98.26;69366.97;5112187;28;20283;-70
2023/06/24 05:35:57;;;;;;;22.25;20.25;;;;;;;-141.02;100.00;71596.63;5112100;28;20242;-56
2023/06/24 05:38:26;;;;;;;21.60;19.70;;;;;;;-141.02;100.00;70605.50;5112510;28;20202;-56
2023/06/24 05:40:52;;;;;;;21.92;20.02;;;;;;;-141.02;100.00;71844.47;5112147;28;20229;-56
2023/06/24 05:43:19;;;;;;;23.42;21.33;;;;;;;-141.02;99.36;69366.97;5112292;28;20193;-56
2023/06/24 05:45:46;;;;;;;24.13;21.85;;;;;;;-141.02;98.88;68871.72;5115751;28;20237;-65
2023/06/24 05:48:14;;;;;;;24.70;22.40;;;;;;;-141.02;100.00;69862.34;5116297;27;20280;-68
2023/06/24 05:50:41;;;;;;;24.67;22.38;;;;;;;-141.02;96.72;68376.50;5116022;28;20758;-56
2023/06/24 05:53:08;;;;;;;23.92;21.73;;;;;;;-141.02;98.38;69366.97;5115934;28;20193;-56
2023/06/24 05:55:37;;;;;;;25.15;22.85;;;;;;;-141.02;98.39;69366.97;5115898;28;20197;-70
2023/06/24 05:58:04;;;;;;;25.38;23.08;;;;;;;-141.02;97.22;68624.09;5116144;28;20228;-71
2023/06/24 06:00:31;;;;;;;25.77;23.38;;;;;;;-141.02;96.97;69119.34;5115783;28;20571;-56
2023/06/24 06:02:57;;;;;;;25.95;23.55;;;;;;;-141.02;96.38;68376.50;5115824;28;20316;-56
2023/06/24 06:05:24;;;;;;;23.73;21.52;;;;;;;-141.02;97.36;69614.66;5115615;28;20228;-56
2023/06/24 06:07:52;;;;;;;25.60;23.20;;;;;;;-141.02;94.98;68624.09;5115637;28;20754;-56
2023/06/24 06:10:19;;;;;;;25.52;23.13;;;;;;;-141.02;94.61;68624.09;5115647;28;20196;-56
2023/06/24 06:12:47;;;;;;;26.92;24.42;;;;;;;-141.02;93.82;68128.91;5115541;28;20193;-55
2023/06/24 06:15:14;;;;;;;26.42;23.95;;;;;;;-141.02;94.32;68871.72;5115485;28;20615;-71
2023/06/24 06:17:41;;;;;;;25.95;23.55;;;;;;;-141.02;94.34;69366.97;5115378;28;20266;-67
2023/06/24 06:20:09;;;;;;;26.42;23.92;;;;;;;-141.02;93.94;69366.97;5115747;28;20201;-56
2023/06/24 06:22:38;;;;;;;25.98;23.58;;;;;;;-141.02;93.59;69366.97;5115366;28;20711;-56
2023/06/24 06:25:06;;;;;;;28.50;25.83;;;;;;;-141.02;91.97;67881.38;5115271;28;20236;-70
2023/06/24 06:27:33;;;;;;;29.42;26.73;;;;;;;-141.02;91.17;67633.81;5115275;28;20232;-56
2023/06/24 06:30:02;;;;;;;28.35;25.75;;;;;;;-141.02;92.23;68624.09;5115512;28;20197;-56
2023/06/24 06:32:29;;;;;;;26.95;24.35;;;;;;;-141.02;92.80;69119.34;5115462;28;20221;-55
2023/06/24 06:34:56;;;;;;;24.40;22.10;;;;;;;-141.02;94.92;70357.75;5115405;28;20201;-56
2023/06/24 06:37:22;;;;;;;25.27;22.80;;;;;;;-141.02;92.92;69614.66;5115426;28;20192;-56
2023/06/24 06:39:49;;;;;;;26.13;23.52;;;;;;;-141.02;91.01;68871.72;5115073;28;20276;-56
2023/06/24 06:42:17;;;;;;;24.58;22.17;;;;;;;-141.02;90.77;70110.03;5115299;28;20276;-57
2023/06/24 06:44:44;;;;;;;25.58;23.08;;;;;;;-141.02;91.25;71101.03;5114920;28;20320;-70
2023/06/24 06:47:12;;;;;;;26.02;23.42;;;;;;;-141.02;86.78;69862.34;5114906;28;20671;-56
2023/06/24 06:49:39;;;;;;;26.23;23.63;;;;;;;-141.02;88.08;69862.34;5114854;28;20200;-56
2023/06/24 06:52:07;;;;;;;26.73;24.13;;;;;;;-141.02;87.78;69862.34;5114811;28;20233;-56
2023/06/24 06:54:34;;;;;;;28.92;26.13;;;;;;;-141.02;84.38;69119.34;5115079;27;20196;-56
2023/06/24 06:57:02;;;;;;;26.45;23.85;;;;;;;-141.02;87.72;69862.34;5114031;28;20677;-70
2023/06/24 06:59:29;;;;;;;27.33;24.63;;;;;;;-141.02;84.85;69119.34;5114600;28;20197;-56
2023/06/24 07:01:56;;;;;;;26.77;24.17;;;;;;;-141.02;84.17;69614.66;5114962;28;20224;-69
2023/06/24 07:04:24;;;;;;;25.88;23.27;;;;;;;-141.02;85.29;70357.75;5114266;28;20315;-56
2023/06/24 07:06:51;;;;;;;27.02;24.35;;;;;;;-141.02;84.65;70853.25;5114824;28;20199;-57
2023/06/24 07:09:19;;;;;;;27.00;24.20;;;;;;;-141.02;84.89;70357.75;5114815;28;20259;-56
2023/06/24 07:11:46;;;;;;;26.92;24.13;;;;;;;-141.02;86.95;70605.50;5114498;28;20193;-70
2023/06/24 07:14:13;;;;;;;28.50;25.60;;;;;;;-141.02;83.86;70110.03;5114709;28;20296;-69
2023/06/24 07:16:40;;;;;;;27.77;24.88;;;;;;;-141.02;81.57;68871.72;5114611;28;20284;-57
2023/06/24 07:19:07;;;;;;;28.63;25.63;;;;;;;-141.02;80.41;68128.91;5114299;28;20286;-56
2023/06/24 07:21:35;;;;;;;27.80;25.00;;;;;;;-141.02;85.90;70110.03;5114600;28;20193;-56
2023/06/24 07:24:02;;;;;;;25.90;23.20;;;;;;;-141.02;80.32;68128.91;5114513;28;20224;-56
2023/06/24 07:26:30;;;;;;;27.52;24.73;;;;;;;-141.02;83.91;70853.25;5114504;28;20229;-56
2023/06/24 07:28:58;;;;;;;27.83;24.92;;;;;;;-141.02;80.43;69366.97;5114053;28;20193;-59
2023/06/24 07:31:25;;;;;;;27.58;24.67;;;;;;;-141.02;81.96;70853.25;5114080;28;20189;-56
2023/06/24 07:33:52;;;;;;;27.27;24.38;;;;;;;-141.02;80.49;70853.25;5113963;28;20239;-71
2023/06/24 07:36:19;;;;;;;25.88;23.17;;;;;;;-141.02;80.73;70853.25;5114008;28;20232;-56
2023/06/24 07:38:48;;;;;;;25.63;22.92;;;;;;;-141.02;78.51;71101.03;5114242;28;20219;-56
2023/06/24 07:41:15;;;;;;;27.48;24.58;;;;;;;-141.02;77.64;70853.25;5113820;28;20233;-56
2023/06/24 07:43:42;;;;;;;25.73;23.02;;;;;;;-141.02;77.12;70853.25;5113809;28;20224;-71
2023/06/24 07:46:09;;;;;;;27.27;24.38;;;;;;;-141.02;77.53;71101.03;5113974;28;20272;-56
2023/06/24 07:48:36;;;;;;;28.55;25.55;;;;;;;-141.02;74.39;69366.97;5114030;28;20225;-56
2023/06/24 07:51:03;;;;;;;26.75;23.85;;;;;;;-141.02;73.08;67633.81;5113997;28;20232;-56
2023/06/24 07:53:30;;;;;;;26.50;23.65;;;;;;;-141.02;76.28;69366.97;5113948;28;20232;-56
2023/06/24 07:55:58;;;;;;;27.77;24.88;;;;;;;-141.02;73.08;68624.09;5113916;28;20280;-56
2023/06/24 07:58:25;;;;;;;27.98;25.02;;;;;;;-141.02;74.71;69366.97;5113453;28;20193;-56
2023/06/24 08:00:52;;;;;;;28.38;25.38;;;;;;;-141.02;75.90;69862.34;5113743;28;20277;-56
2023/06/24 08:03:19;;;;;;;28.45;25.45;;;;;;;-141.02;73.50;68128.91;5113349;28;20304;-57
2023/06/24 08:05:46;;;;;;;25.80;23.05;;;;;;;-141.02;78.29;70357.75;5113306;28;20316;-56
2023/06/24 08:08:13;;;;;;;27.98;25.08;;;;;;;-141.02;73.95;69119.34;5112311;28;20189;-56
2023/06/24 08:10:40;;;;;;;27.80;24.60;;;;;;;-141.02;72.52;69862.34;5113521;28;20224;-71
2023/06/24 08:13:08;;;;;;;28.05;25.05;;;;;;;-141.02;76.16;70853.25;5113562;28;20200;-68
2023/06/24 08:15:35;;;;;;;27.10;23.75;;;;;;;-141.02;72.58;69614.66;5113491;28;20228;-64
2023/06/24 08:18:02;;;;;;;27.48;24.48;;;;;;;-141.02;74.67;71348.81;5113465;28;20225;-56
2023/06/24 08:20:29;;;;;;;27.23;24.33;;;;;;;-141.02;76.08;71101.03;5113445;28;20189;-57
2023/06/24 08:22:56;;;;;;;28.85;25.77;;;;;;;-141.02;69.61;69366.97;5113310;28;20280;-71
2023/06/24 08:25:23;;;;;;;28.02;24.98;;;;;;;-141.02;70.07;69119.34;5113909;28;20279;-56
2023/06/24 08:27:50;;;;;;;30.02;26.83;;;;;;;-141.02;73.61;70357.75;5112878;28;20230;-57
2023/06/24 08:30:19;;;;;;;27.15;24.25;;;;;;;-141.02;69.75;70853.25;5113275;28;20223;-71
2023/06/24 08:32:46;;;;;;;29.45;26.25;;;;;;;-141.02;68.72;68871.72;5113158;28;20266;-56
2023/06/24 08:35:13;;;;;;;28.15;25.05;;;;;;;-141.02;68.93;69862.34;5113151;28;20249;-57
2023/06/24 08:37:40;;;;;;;30.10;26.98;;;;;;;-141.02;70.51;69119.34;5113073;28;20189;-56
2023/06/24 08:40:08;;;;;;;28.15;25.15;;;;;;;-141.02;71.50;70605.50;5113085;27;20720;-56
2023/06/24 08:42:35;;;;;;;29.80;26.63;;;;;;;-141.02;70.06;69862.34;5113050;28;20563;-56
2023/06/24 08:45:02;;;;;;;29.20;26.10;;;;;;;-141.02;69.10;70110.03;5112580;28;20691;-71
2023/06/24 08:47:31;;;;;;;29.92;26.73;;;;;;;-141.02;66.64;68128.91;5112901;28;20276;-58
2023/06/24 08:50:04;;;;;;;28.17;25.20;;;;;;;-141.02;70.77;70110.03;5112949;28;20223;-66
2023/06/24 08:52:36;;;;;;;28.20;25.23;;;;;;;-141.02;68.70;69862.34;5112883;28;20189;-57
2023/06/24 08:55:07;;;;;;;27.15;24.35;;;;;;;-141.02;69.14;70110.03;5112942;28;20626;-57
2023/06/24 08:57:34;;;;;;;27.52;24.63;;;;;;;-141.02;68.15;68376.50;5112585;28;20220;-56
2023/06/24 09:00:03;;;;;;;27.80;24.90;;;;;;;-141.02;69.06;69614.66;5112526;28;20681;-56
2023/06/24 09:02:37;;;;;;;28.45;25.45;;;;;;;-141.02;68.04;68128.91;5112751;28;20197;-57
2023/06/24 09:05:05;;;;;;;29.00;26.00;;;;;;;-141.02;70.40;70110.03;5113042;28;20235;-56
2023/06/24 09:07:32;;;;;;;27.20;24.33;;;;;;;-141.02;69.58;69119.34;5112636;28;20308;-56
2023/06/24 09:10:00;;;;;;;27.25;24.35;;;;;;;-141.02;68.94;68871.72;5112670;28;20291;-56
2023/06/24 09:12:27;;;;;;;27.17;24.17;;;;;;;-141.02;65.43;68128.91;5112704;28;20208;-57
2023/06/24 09:14:54;;;;;;;27.15;24.25;;;;;;;-141.02;67.82;68871.72;5112360;28;20283;-56
2023/06/24 09:17:22;;;;;;;27.05;24.10;;;;;;;-141.02;68.87;69366.97;5112671;28;20276;-56
2023/06/24 09:19:51;;;;;;;27.77;24.77;;;;;;;-141.02;66.54;68624.09;5115020;28;20230;-57
2023/06/24 09:22:18;;;;;;;28.20;25.20;;;;;;;-141.02;65.81;67881.38;5116611;28;20197;-56
2023/06/24 09:24:46;;;;;;;26.70;23.90;;;;;;;-141.02;69.41;69614.66;5116743;28;20311;-65
2023/06/24 09:27:15;;;;;;;27.98;25.00;;;;;;;-141.02;67.22;69119.34;5116462;28;20193;-56
2023/06/24 09:29:43;;;;;;;28.27;25.27;;;;;;;-141.02;67.00;70110.03;5116364;28;20189;-57
2023/06/24 09:32:11;;;;;;;28.67;25.58;;;;;;;-141.02;66.29;69614.66;5116666;28;20279;-57
2023/06/24 09:34:38;;;;;;;28.90;25.80;;;;;;;-141.02;67.30;68871.72;5116593;27;20343;-57
2023/06/24 09:37:08;;;;;;;28.23;25.23;;;;;;;-141.02;66.03;69366.97;5116266;28;20197;-57
2023/06/24 09:39:41;;;;;;;30.35;27.15;;;;;;;-141.02;65.93;70357.75;5116559;28;20197;-56
2023/06/24 09:42:09;;;;;;;30.60;27.50;;;;;;;-141.02;63.59;70357.75;5116747;28;20185;-57
2023/06/24 09:44:36;;;;;;;30.10;27.00;;;;;;;-141.02;62.36;70357.75;5116195;28;20574;-57
2023/06/24 09:47:03;;;;;;;29.52;26.42;;;;;;;-141.02;61.73;69366.97;5116055;28;20570;-71
2023/06/24 09:49:30;;;;;;;30.42;27.23;;;;;;;-141.02;64.03;70357.75;5117261;28;20276;-57
2023/06/24 09:51:59;;;;;;;28.35;25.35;;;;;;;-141.02;63.47;69366.97;5116378;28;20215;-57
2023/06/24 09:54:28;;;;;;;27.35;24.42;;;;;;;-141.02;62.71;69862.34;5115859;28;20651;-56
2023/06/24 09:57:00;;;;;;;28.27;25.27;;;;;;;-141.02;60.63;68624.09;5116216;28;20587;-72
2023/06/24 09:59:31;;;;;;;27.77;24.77;;;;;;;-141.02;58.55;66396.38;5115852;28;20186;-72
2023/06/24 10:01:59;;;;;;;28.63;25.63;;;;;;;-141.02;61.46;66643.84;5116177;28;20632;-58
2023/06/24 10:04:28;;;;;;;28.77;25.67;;;;;;;-141.02;60.74;65901.53;5115806;28;20311;-58
2023/06/24 10:06:56;;;;;;;29.67;26.48;;;;;;;-141.02;58.57;66148.94;5115730;28;20265;-57
2023/06/24 10:09:23;;;;;;;30.02;26.73;;;;;;;-141.02;61.22;65901.53;5115913;28;20228;-57
2023/06/24 10:11:51;;;;;;;28.98;25.88;;;;;;;-141.02;61.85;67386.28;5115551;28;20194;-58
2023/06/24 10:14:18;;;;;;;31.42;28.15;;;;;;;-141.02;60.27;68871.72;5115884;28;20296;-57
2023/06/24 10:16:45;;;;;;;30.67;27.38;;;;;;;-141.02;58.74;69119.34;5115775;28;20233;-71
2023/06/24 10:19:21;;;;;;;30.55;27.25;;;;;;;-141.02;56.66;67138.78;5115515;28;20193;-70
2023/06/24 10:21:52;;;;;;;30.45;27.15;;;;;;;-141.02;56.98;67881.38;5115486;28;20233;-71
2023/06/24 10:24:32;;;;;;;30.40;27.10;;;;;;;-141.02;57.83;68128.91;5115386;28;20630;-71
2023/06/24 10:27:22;;;;;;;30.63;27.52;;;;;;;-141.02;59.04;70357.75;5115694;28;20315;-65
2023/06/24 10:29:51;;;;;;;29.63;26.25;;;;;;;-141.02;55.52;69366.97;5112350;28;20200;-56
2023/06/24 10:32:20;;;;;;;32.40;29.00;;;;;;;-141.02;57.51;69862.34;5114474;28;20275;-73
2023/06/24 10:34:48;;;;;;;29.85;26.65;;;;;;;-141.02;57.69;67386.28;5115147;28;20228;-58
2023/06/24 10:37:19;;;;;;;29.60;26.35;;;;;;;-141.02;58.75;64664.72;5115106;28;20233;-57
2023/06/24 10:39:49;;;;;;;28.42;25.33;;;;;;;-141.02;56.72;65406.75;5115173;28;20564;-72
2023/06/24 10:42:32;;;;;;;27.98;24.98;;;;;;;-141.02;57.02;68128.91;5115025;28;20197;-57
2023/06/24 10:45:01;;;;;;;29.17;26.08;;;;;;;-141.02;59.56;70357.75;5115419;28;20193;-57
2023/06/24 10:47:30;;;;;;;29.65;26.50;;;;;;;-141.02;57.61;69614.66;5115283;28;20220;-57
2023/06/24 10:49:57;;;;;;;28.08;25.08;;;;;;;-141.02;59.49;68871.72;5114869;28;20284;-57
2023/06/24 10:52:27;;;;;;;28.83;25.73;;;;;;;-141.02;55.71;67386.28;5115154;28;20284;-71
2023/06/24 10:54:54;;;;;;;28.70;25.70;;;;;;;-141.02;57.75;69366.97;5115149;28;20228;-57
2023/06/24 10:57:24;;;;;;;31.45;28.15;;;;;;;-141.02;54.50;67633.81;5114727;28;20677;-57
2023/06/24 10:59:53;;;;;;;30.13;26.92;;;;;;;-141.02;56.72;69366.97;5114944;28;20192;-57
2023/06/24 11:02:22;;;;;;;30.27;27.08;;;;;;;-141.02;57.31;69119.34;5114892;28;20197;-58
2023/06/24 11:04:50;;;;;;;30.55;27.33;;;;;;;-141.02;52.87;66643.84;5114529;28;20323;-57
2023/06/24 11:07:19;;;;;;;30.65;27.45;;;;;;;-141.02;53.72;69366.97;5114476;28;20229;-57
2023/06/24 11:09:51;;;;;;;31.27;27.98;;;;;;;-141.02;52.88;69366.97;5114527;28;20243;-63
2023/06/24 11:12:18;;;;;;;31.35;28.05;;;;;;;-141.02;49.98;67633.81;5114453;28;20655;-57
2023/06/24 11:14:45;;;;;;;31.83;28.42;;;;;;;-141.02;52.07;67633.81;5114613;28;20239;-57
2023/06/24 11:17:14;;;;;;;30.52;27.23;;;;;;;-141.02;51.43;67138.78;5114326;28;20200;-74
2023/06/24 11:19:41;;;;;;;30.98;27.67;;;;;;;-141.02;51.54;66891.31;5114234;28;20754;-57
2023/06/24 11:22:08;;;;;;;34.05;30.55;;;;;;;-141.02;50.49;64417.41;5114563;28;20199;-57
2023/06/24 11:24:36;;;;;;;31.75;28.45;;;;;;;-141.02;50.73;65159.41;5114718;28;20220;-57
2023/06/24 11:27:05;;;;;;;30.42;27.13;;;;;;;-141.02;50.61;66643.84;5114526;28;20319;-57
2023/06/24 11:29:33;;;;;;;30.75;27.38;;;;;;;-141.02;49.22;64912.06;5114428;28;20192;-57
2023/06/24 11:32:01;;;;;;;30.60;27.30;;;;;;;-141.02;49.05;64664.72;5114014;27;20241;-57
2023/06/24 11:34:29;;;;;;;31.75;28.35;;;;;;;-141.02;50.08;64664.72;5114058;28;20228;-57
2023/06/24 11:36:57;;;;;;;30.95;27.65;;;;;;;-141.02;50.39;64912.06;5114150;28;20280;-57
2023/06/24 11:39:25;;;;;;;30.52;27.23;;;;;;;-141.02;49.33;64417.41;5114198;28;20242;-57
2023/06/24 11:41:52;;;;;;;30.88;27.58;;;;;;;-141.02;47.75;63181.16;5113945;28;20244;-57
2023/06/24 11:44:21;;;;;;;30.30;27.10;;;;;;;-141.02;48.54;62686.75;5113771;28;20317;-57
2023/06/24 11:46:48;;;;;;;30.05;26.80;;;;;;;-141.02;47.92;62933.94;5113873;28;20224;-57
2023/06/24 11:49:15;;;;;;;29.90;26.70;;;;;;;-141.02;50.63;64912.06;5113591;28;20228;-57
2023/06/24 11:51:52;;;;;;;32.03;28.63;;;;;;;-141.02;46.41;63428.38;5113671;28;20287;-57
2023/06/24 11:54:21;;;;;;;31.55;28.15;;;;;;;-141.02;46.53;64417.41;5113920;28;20188;-57
2023/06/24 11:56:52;;;;;;;32.53;29.02;;;;;;;-141.02;49.72;64912.06;5113870;27;20197;-57
2023/06/24 11:59:20;;;;;;;31.15;27.75;;;;;;;-141.02;47.86;64170.13;5113761;28;20184;-57
2023/06/24 12:01:55;;;;;;;31.17;27.88;;;;;;;-141.02;50.29;65901.53;5113740;28;20200;-57
2023/06/24 12:04:22;;;;;;;31.50;28.10;;;;;;;-141.02;44.80;61451.13;5113307;28;20231;-57
2023/06/24 12:06:50;;;;;;;32.08;28.67;;;;;;;-141.02;48.00;61698.22;5113582;28;20271;-57
2023/06/24 12:09:17;;;;;;;32.65;29.15;;;;;;;-141.02;46.61;60462.94;5113667;28;20192;-57
2023/06/24 12:11:44;;;;;;;33.90;30.40;;;;;;;-141.02;46.17;60957.00;5113551;28;20228;-57
2023/06/24 12:14:13;;;;;;;31.77;28.38;;;;;;;-141.02;47.41;61698.22;5113586;28;20192;-57
2023/06/24 12:16:40;;;;;;;31.98;28.52;;;;;;;-141.02;47.53;62439.59;5113156;28;20280;-74
2023/06/24 12:19:07;;;;;;;29.17;25.98;;;;;;;-141.02;45.97;61451.13;5113451;28;20200;-57
2023/06/24 12:21:34;;;;;;;30.63;27.30;;;;;;;-141.02;48.78;61945.31;5113026;28;20193;-75
2023/06/24 12:24:03;;;;;;;31.55;28.15;;;;;;;-141.02;49.95;62686.75;5113357;28;20196;-58
2023/06/24 12:26:30;;;;;;;31.67;28.27;;;;;;;-141.02;45.63;57563.72;5112931;28;20759;-58
2023/06/24 12:28:57;;;;;;;30.75;27.40;;;;;;;-141.02;46.49;58898.25;5112879;28;20667;-74
2023/06/24 12:31:24;;;;;;;31.23;27.83;;;;;;;-141.02;45.21;58151.84;5113264;28;20271;-57
2023/06/24 12:33:52;;;;;;;31.23;27.90;;;;;;;-141.02;48.99;60462.94;5113137;28;20278;-57
2023/06/24 12:36:19;;;;;;;32.10;28.70;;;;;;;-141.02;49.51;59610.06;5113170;28;20203;-57
2023/06/24 12:38:46;;;;;;;32.22;28.83;;;;;;;-141.02;48.16;57058.56;5112785;28;20193;-57
2023/06/24 12:41:14;;;;;;;32.10;28.70;;;;;;;-141.02;50.82;55996.50;5113079;28;20197;-57
2023/06/24 12:43:41;;;;;;;31.05;27.73;;;;;;;-141.02;58.43;53103.00;5113259;28;20280;-57
2023/06/24 12:46:08;;;;;;;31.70;28.30;;;;;;;-141.02;67.20;51355.03;5112568;28;20769;-56
2023/06/24 12:48:35;;;;;;;30.17;26.98;;;;;;;-141.02;72.19;50231.25;5112708;28;20193;-71
2023/06/24 12:51:02;;;;;;;29.02;26.02;;;;;;;-141.02;81.62;50737.28;5112956;28;20289;-56
2023/06/24 12:53:29;;;;;;;23.90;21.85;;;;;;;-141.02;92.11;50754.59;5112743;28;20246;-56
2023/06/24 12:55:56;;;;;;;22.10;20.60;;;;;;;-141.02;100.00;56509.19;5112583;28;20670;-56
2023/06/24 12:58:26;;;;;;;21.70;20.20;;;;;;;-141.02;100.00;56861.94;5112835;28;20276;-55
2023/06/24 13:00:53;;;;;;;20.77;19.38;;;;;;;-141.02;100.00;58587.69;5112835;28;20199;-55